Terminal Aerodrome Forecast
Issued by NWS Austin/San Antonio, TX

Home | Current Version | Previous Version | Text Only | Print | Product List | Glossary On
Versions: 1 2 3 4 5 6 7 8 9 10 11 12
000
FTUS44 KEWX 310529
TAFAUS
TAF
KAUS 310529Z 3106/0112 17006KT P6SM SCT120
     FM311200 16009KT P6SM SCT018 SCT150
      TEMPO 3112/3114 BKN018
     FM311800 16007KT P6SM SCT060 SCT250=

USA.gov is the U.S. government's official web portal to all federal, state and local government web resources and services.